createdAt,value
2022-09-06T00:04:02.366Z,101731.34
2022-09-06T00:09:04.198Z,101740.13
2022-09-06T00:14:06.046Z,101738.38
2022-09-06T00:19:07.792Z,101732.03
2022-09-06T00:24:09.743Z,101729.31
2022-09-06T00:29:11.481Z,101729.22
2022-09-06T00:34:13.180Z,101738.09
2022-09-06T00:39:14.894Z,101732.53
2022-09-06T00:44:16.664Z,101716.78
2022-09-06T00:49:37.925Z,101749.41
2022-09-06T00:54:41.160Z,101739.66
2022-09-06T00:59:45.700Z,101744.16
2022-09-06T01:04:51.135Z,101734.34
2022-09-06T01:10:37.139Z,101737.09
2022-09-06T01:16:33.265Z,101725.63
2022-09-06T01:22:22.697Z,101716.53
2022-09-06T01:27:51.337Z,101720.91
2022-09-06T01:33:25.352Z,101728.72
2022-09-06T01:38:27.971Z,101724.53
2022-09-06T01:43:36.952Z,101686.19
2022-09-06T01:49:11.585Z,101722.63
2022-09-06T01:55:02.877Z,101709.94
2022-09-06T02:00:10.103Z,101718.09
2022-09-06T02:05:41.387Z,101717.28
2022-09-06T02:11:03.525Z,101716.94
2022-09-06T02:16:09.436Z,101692.22
2022-09-06T02:21:16.954Z,101710.06
2022-09-06T02:26:27.061Z,101702.81
2022-09-06T02:31:52.915Z,101707.16
2022-09-06T02:36:55.753Z,101697.41
2022-09-06T02:41:58.697Z,101703.47
2022-09-06T02:47:01.468Z,101703.78
2022-09-06T02:52:03.561Z,101708.25
2022-09-06T02:57:05.316Z,101691.59
2022-09-06T03:02:07.051Z,101691.28
2022-09-06T03:07:08.770Z,101698.50
2022-09-06T03:12:10.490Z,101686.47
2022-09-06T03:17:12.218Z,101704.91
2022-09-06T03:22:13.916Z,101691.59
2022-09-06T03:27:15.599Z,101696.69
2022-09-06T03:32:17.299Z,101678.44
2022-09-06T03:37:19.529Z,101693.31
2022-09-06T03:42:21.810Z,101670.06
2022-09-06T03:47:23.533Z,101695.16
2022-09-06T03:52:25.264Z,101677.22
2022-09-06T03:57:26.972Z,101693.66
2022-09-06T04:02:28.792Z,101679.09
2022-09-06T04:07:30.539Z,101687.00
2022-09-06T04:12:32.264Z,101675.84
2022-09-06T04:17:35.314Z,101687.91
2022-09-06T04:22:36.999Z,101685.00
2022-09-06T04:27:38.669Z,101665.09
2022-09-06T04:32:40.753Z,101659.78
2022-09-06T04:37:42.496Z,101666.25
2022-09-06T04:42:44.188Z,101670.41
2022-09-06T04:47:45.946Z,101662.59
2022-09-06T04:52:47.670Z,101670.16
2022-09-06T04:57:51.278Z,101650.97
2022-09-06T05:02:53.373Z,101660.66
2022-09-06T05:07:56.673Z,101660.59
2022-09-06T05:12:58.405Z,101637.16
2022-09-06T05:18:06.600Z,101652.56
2022-09-06T05:23:08.933Z,101641.19
2022-09-06T05:28:10.637Z,101656.94
2022-09-06T05:33:20.481Z,101652.94
2022-09-06T05:38:22.234Z,101643.38
2022-09-06T05:43:24.006Z,101652.16
2022-09-06T05:48:25.713Z,101647.66
2022-09-06T05:53:27.450Z,101663.50
2022-09-06T05:58:29.176Z,101662.41
2022-09-06T06:03:31.044Z,101654.81
2022-09-06T06:08:32.719Z,101645.28
2022-09-06T06:13:39.292Z,101627.44
2022-09-06T06:18:41.483Z,101636.44
2022-09-06T06:23:47.752Z,101643.59
2022-09-06T06:28:49.525Z,101632.69
2022-09-06T06:33:51.473Z,101639.09
2022-09-06T06:38:55.353Z,101628.38
2022-09-06T06:44:01.892Z,101639.03
2022-09-06T06:49:04.778Z,101637.66
2022-09-06T06:54:06.721Z,101643.66
2022-09-06T06:59:08.564Z,101639.81
2022-09-06T07:04:12.146Z,101628.28
2022-09-06T07:09:13.812Z,101613.22
2022-09-06T07:14:19.349Z,101628.25
2022-09-06T07:24:42.735Z,101623.50
2022-09-06T07:29:44.472Z,101627.09
2022-09-06T07:34:46.199Z,101624.69
2022-09-06T07:39:48.327Z,101645.81
2022-09-06T07:44:50.061Z,101643.94
2022-09-06T07:55:13.476Z,101622.94
2022-09-06T08:00:15.398Z,101614.50
2022-09-06T08:10:38.859Z,101606.44
2022-09-06T08:15:41.693Z,101609.91
2022-09-06T08:20:43.506Z,101613.66
2022-09-06T08:25:45.189Z,101632.09
2022-09-06T08:30:46.875Z,101640.59
2022-09-06T08:35:59.886Z,101631.28
2022-09-06T08:41:11.319Z,101637.84
2022-09-06T08:46:13.228Z,101620.97
2022-09-06T08:51:38.618Z,101624.22
2022-09-06T08:57:02.118Z,101605.09
2022-09-06T09:02:20.186Z,101610.72
2022-09-06T09:07:47.929Z,101596.06
2022-09-06T09:12:50.633Z,101596.81
2022-09-06T09:17:54.258Z,101597.81
2022-09-06T09:22:56.233Z,101599.38
2022-09-06T09:27:58.918Z,101589.69
2022-09-06T09:33:00.612Z,101577.94
2022-09-06T09:38:19.058Z,101584.16
2022-09-06T09:43:29.839Z,101575.81
2022-09-06T09:48:31.769Z,101559.00
2022-09-06T09:53:33.467Z,101566.72
2022-09-06T09:58:37.267Z,101555.66
2022-09-06T10:09:35.373Z,101542.72
2022-09-06T10:14:48.945Z,101538.47
2022-09-06T10:19:50.696Z,101530.34
2022-09-06T10:25:37.992Z,101543.25
2022-09-06T10:31:13.209Z,101523.28
2022-09-06T10:36:24.916Z,101527.66
2022-09-06T10:42:09.406Z,101532.97
2022-09-06T10:47:15.745Z,101519.78
2022-09-06T10:52:29.347Z,101511.09
2022-09-06T11:09:41.485Z,101507.81
2022-09-06T11:14:43.316Z,101506.94
2022-09-06T11:20:22.653Z,101503.41
2022-09-06T11:25:54.090Z,101507.75
2022-09-06T11:30:58.773Z,101494.56
2022-09-06T11:36:48.208Z,101502.47
2022-09-06T11:41:49.917Z,101486.56
2022-09-06T11:46:51.482Z,101486.66
2022-09-06T11:51:53.862Z,101473.44
2022-09-06T11:57:11.292Z,101476.97
2022-09-06T12:02:41.166Z,101487.53
2022-09-06T12:08:10.992Z,101482.28
2022-09-06T12:13:47.557Z,101478.75
2022-09-06T12:18:49.088Z,101485.81
2022-09-06T12:23:50.847Z,101460.31
2022-09-06T12:28:53.631Z,101437.41
2022-09-06T12:33:58.236Z,101462.97
2022-09-06T12:39:10.268Z,101433.91
2022-09-06T12:44:16.173Z,101425.94
2022-09-06T12:49:23.527Z,101433.88
2022-09-06T12:54:28.861Z,101413.63
2022-09-06T12:59:32.030Z,101431.25
2022-09-06T13:04:50.424Z,101423.31
2022-09-06T13:09:56.015Z,101418.00
2022-09-06T13:15:25.169Z,101401.28
2022-09-06T13:20:30.523Z,101404.72
2022-09-06T13:25:32.324Z,101382.69
2022-09-06T13:30:45.840Z,101410.03
2022-09-06T13:36:08.231Z,101384.47
2022-09-06T13:41:25.049Z,101393.25
2022-09-06T13:46:27.902Z,101386.19
2022-09-06T13:51:29.938Z,101378.19
2022-09-06T13:56:32.022Z,101387.63
2022-09-06T14:01:34.410Z,101385.94
2022-09-06T14:06:36.924Z,101384.16
2022-09-06T14:11:39.096Z,101372.84
2022-09-06T14:16:40.823Z,101363.97
2022-09-06T14:21:43.278Z,101382.59
2022-09-06T14:26:46.365Z,101361.44
2022-09-06T14:31:48.926Z,101378.13
2022-09-06T14:36:50.591Z,101379.03
2022-09-06T14:41:52.315Z,101373.72
2022-09-06T14:46:54.574Z,101375.59
2022-09-06T14:51:56.378Z,101365.88
2022-09-06T14:56:58.152Z,101360.56
2022-09-06T15:02:00.092Z,101354.38
2022-09-06T15:07:01.878Z,101372.06
2022-09-06T15:12:04.185Z,101351.81
2022-09-06T15:17:08.779Z,101345.66
2022-09-06T15:22:10.533Z,101338.59
2022-09-06T15:27:12.438Z,101349.16
2022-09-06T15:32:14.130Z,101337.78
2022-09-06T15:37:15.804Z,101343.97
2022-09-06T15:42:17.854Z,101325.50
2022-09-06T15:47:19.609Z,101334.34
2022-09-06T15:52:21.359Z,101333.44
2022-09-06T15:57:23.108Z,101334.31
2022-09-06T16:02:24.941Z,101314.94
2022-09-06T16:07:27.007Z,101295.53
2022-09-06T16:12:28.736Z,101317.56
2022-09-06T16:17:31.245Z,101306.13
2022-09-06T16:22:33.045Z,101314.03
2022-09-06T16:27:34.744Z,101308.75
2022-09-06T16:32:36.460Z,101295.53
2022-09-06T16:37:38.183Z,101308.75
2022-09-06T16:42:59.585Z,101308.75
2022-09-06T16:48:01.347Z,101312.28
2022-09-06T16:53:03.388Z,101289.41
2022-09-06T16:58:05.126Z,101296.47
2022-09-06T17:03:07.852Z,101294.69
2022-09-06T17:08:10.029Z,101292.09
2022-09-06T17:13:12.833Z,101285.94
2022-09-06T17:18:14.518Z,101292.09
2022-09-06T17:23:19.639Z,101279.78
2022-09-06T17:28:23.377Z,101284.19
2022-09-06T17:33:25.204Z,101282.47
2022-09-06T17:38:26.935Z,101270.13
2022-09-06T17:43:29.128Z,101277.19
2022-09-06T17:48:30.902Z,101289.50
2022-09-06T17:53:33.770Z,101300.94
2022-09-06T17:58:37.093Z,101297.41
2022-09-06T18:03:41.634Z,101321.19
2022-09-06T18:08:44.893Z,101322.09
2022-09-06T18:13:47.560Z,101305.31
2022-09-06T18:18:56.831Z,101319.41
2022-09-06T18:23:58.846Z,101315.88
2022-09-06T18:29:00.713Z,101315.84
2022-09-06T18:34:03.140Z,101309.72
2022-09-06T18:39:06.033Z,101319.38
2022-09-06T18:44:08.565Z,101319.38
2022-09-06T18:49:11.184Z,101305.28
2022-09-06T18:54:14.302Z,101310.56
2022-09-06T18:59:17.361Z,101317.56
2022-09-06T19:04:19.085Z,101300.88
2022-09-06T19:09:21.313Z,101312.28
2022-09-06T19:14:23.207Z,101314.03
2022-09-06T19:19:25.626Z,101297.31
2022-09-06T19:24:27.368Z,101315.78
2022-09-06T19:29:29.175Z,101321.94
2022-09-06T19:34:30.898Z,101308.72
2022-09-06T19:39:36.983Z,101302.56
2022-09-06T19:44:39.174Z,101310.50
2022-09-06T19:49:40.994Z,101302.56
2022-09-06T19:54:43.260Z,101291.09
2022-09-06T19:59:45.070Z,101299.91
2022-09-06T20:04:46.867Z,101295.50
2022-09-06T20:09:52.434Z,101292.81
2022-09-06T20:14:54.392Z,101297.19
2022-09-06T20:19:56.130Z,101287.50
2022-09-06T20:24:57.869Z,101294.50
2022-09-06T20:29:59.779Z,101291.81
2022-09-06T20:35:01.518Z,101275.97
2022-09-06T20:40:04.696Z,101265.38
2022-09-06T20:45:07.238Z,101269.78
2022-09-06T20:50:09.725Z,101259.22
2022-09-06T20:55:11.489Z,101267.16
2022-09-06T21:00:14.635Z,101254.81
2022-09-06T21:05:16.455Z,101242.47
2022-09-06T21:10:18.194Z,101255.63
2022-09-06T21:15:19.912Z,101259.13
2022-09-06T21:20:21.679Z,101245.94
2022-09-06T21:25:23.603Z,101249.47
2022-09-06T21:30:25.666Z,101232.72
2022-09-06T21:35:27.338Z,101240.66
2022-09-06T21:40:29.077Z,101235.38
2022-09-06T21:45:30.884Z,101216.03
2022-09-06T21:50:33.577Z,101217.72
2022-09-06T21:55:35.277Z,101222.16
2022-09-06T22:00:38.396Z,101227.44
2022-09-06T22:05:40.150Z,101222.97
2022-09-06T22:10:41.984Z,101207.97
2022-09-06T22:15:44.229Z,101213.28
2022-09-06T22:20:45.937Z,101187.72
2022-09-06T22:25:47.680Z,101194.72
2022-09-06T22:30:49.422Z,101189.47
2022-09-06T22:35:51.790Z,101192.03
2022-09-06T22:40:57.124Z,101156.81
2022-09-06T22:46:11.144Z,101174.38
2022-09-06T22:51:12.905Z,101184.00
2022-09-06T22:56:14.645Z,101176.06
2022-09-06T23:01:17.412Z,101177.81
2022-09-06T23:06:19.361Z,101173.44
2022-09-06T23:11:21.210Z,101178.66
2022-09-06T23:16:23.015Z,101165.47
2022-09-06T23:21:26.549Z,101172.53
2022-09-06T23:26:31.949Z,101174.25
2022-09-06T23:31:34.783Z,101156.63
2022-09-06T23:36:36.634Z,101168.91
2022-09-06T23:41:38.330Z,101154.81
2022-09-06T23:46:40.099Z,101159.22
2022-09-06T23:51:42.273Z,101172.41
2022-09-06T23:56:43.974Z,101163.56
